Finlandia — OJPP — position and weather

sailwx.info

Track history (hours):
 
Tides and Currents Weather Stations Pressure Air Temp Water Temp Dewpoint Dewpoint Depression Visibility Wind Speed Wind Dir Waves Ship Positions

Finlandia

Last reported at 2016-Sep-25 10:06 UTC. Time now 2016-Sep-25 14:06 UTC.
Position N 59°48' E 024°51'.

Length 175 m; draft 7 m.

Type: Passenger vessel. MMSI: 230628000.

Date/timePositionNaut miles runAvg speedWind from/ knotsBaromVisibWave heightAir tempDewpointWater temp
2016-Sep-25 10:06N 59°48' E 024°51'1120.3
2016-Sep-25 09:33N 59°38' E 024°42'9 4.3
2016-Sep-25 07:34N 59°29' E 024°45'13 0.9
2016-Sep-24 16:33N 59°43' E 024°46'16 7.9
2016-Sep-24 14:33N 59°27' E 024°46'12 2.3
2016-Sep-24 09:34N 59°38' E 024°43'16 1.0
2016-Sep-23 17:09N 59°54' E 024°51'1220.7
2016-Sep-23 16:33N 59°42' E 024°41'1615.7
2016-Sep-23 15:33N 59°27' E 024°46'2311.3
2016-Sep-23 13:33N 59°49' E 024°50'12 2.9
2016-Sep-23 09:33N 59°38' E 024°43'14 4.8
2016-Sep-23 06:33N 59°52' E 024°52'18 0.7
2016-Sep-22 04:06N 60°09' E 024°55'0 0.2
2016-Sep-22 03:33N 60°09' E 024°55'28 9.4
2016-Sep-22 00:33N 59°41' E 024°45'8 7.9
2016-Sep-21 23:34N 59°33' E 024°43'7 6.9
2016-Sep-21 22:34N 59°27' E 024°46'4112.9
2016-Sep-21 19:22N 60°08' E 024°54'27 9.7
2016-Sep-21 16:33N 59°41' E 024°41'6 0.8
2016-Sep-21 09:33N 59°36' E 024°42'9 9.1
2016-Sep-21 08:33N 59°27' E 024°46'4214.1
2016-Sep-21 05:34N 60°09' E 024°55'0 0.1
2016-Sep-21 03:33N 60°09' E 024°55'1111.4
2016-Sep-21 02:33N 59°58' E 024°54'4 0.5
2016-Sep-20 17:33N 60°02' E 024°54'3511.7
2016-Sep-20 14:34N 59°27' E 024°46'2322.8
2016-Sep-20 13:33N 59°50' E 024°47'7 2.3
2016-Sep-20 10:34N 59°56' E 024°53'2914.4
2016-Sep-20 08:31N 59°27' E 024°46'4 3.8
2016-Sep-20 07:33N 59°30' E 024°44'1919.3
2016-Sep-20 06:33N 59°50' E 024°47'20 4.9
2016-Sep-20 02:28N 60°09' E 024°55'0 0.0
2016-Sep-19 23:31N 60°09' E 024°55'0 0.0
2016-Sep-19 19:31N 60°09' E 024°55'0 0.0
2016-Sep-19 18:31N 60°09' E 024°55'2914.8
2016-Sep-19 16:33N 59°41' E 024°45'14 6.9
2016-Sep-19 14:33N 59°27' E 024°46'2222.0
2016-Sep-19 13:34N 59°49' E 024°50'2020.4
2016-Sep-19 12:33N 60°09' E 024°55'0 0.2
2016-Sep-19 11:33N 60°09' E 024°55'3316.6
2016-Sep-19 09:33N 59°37' E 024°41'7 3.6
2016-Sep-19 07:34N 59°30' E 024°45'1919.0
2016-Sep-19 06:33N 59°49' E 024°45'21 6.6
2016-Sep-19 03:24N 60°09' E 024°55'0 0.0
2016-Sep-19 02:33N 60°09' E 024°55'0 0.0
2016-Sep-19 00:33N 60°09' E 024°55'0 0.0
2016-Sep-18 19:30N 60°09' E 024°55'4310.8
2016-Sep-18 15:33N 59°27' E 024°46'0 0.3
2016-Sep-18 14:33N 59°27' E 024°46'31 7.7
2016-Sep-18 10:34N 59°57' E 024°54'2120.8
2016-Sep-18 09:33N 59°37' E 024°41'33 4.6
2016-Sep-18 02:31N 60°09' E 024°55'0 0.0
2016-Sep-18 01:31N 60°09' E 024°55'0 0.0
2016-Sep-18 00:31N 60°09' E 024°55'0 0.0
2016-Sep-17 22:31N 60°09' E 024°55'0 0.0
2016-Sep-17 21:31N 60°09' E 024°55'0 0.0
2016-Sep-17 20:31N 60°09' E 024°55'0 0.0
2016-Sep-17 19:13N 60°09' E 024°55'22 3.9
2016-Sep-17 13:34N 59°47' E 024°46'2221.6
2016-Sep-17 12:33N 60°09' E 024°54'13 6.3
2016-Sep-17 10:33N 59°56' E 024°54'2020.1
2016-Sep-17 09:33N 59°37' E 024°41'1010.4
2016-Sep-17 08:33N 59°27' E 024°46'3 3.3
2016-Sep-17 07:34N 59°30' E 024°45'3919.3
2016-Sep-17 05:33N 60°08' E 024°54'1 1.0
2016-Sep-17 04:33N 60°09' E 024°55'0 0.0
2016-Sep-17 00:33N 60°09' E 024°55'9 1.3
2016-Sep-16 17:33N 59°60' E 024°54'3316.7
2016-Sep-16 15:33N 59°27' E 024°46'4214.1
2016-Sep-16 12:34N 60°09' E 024°55'3210.8
2016-Sep-16 09:33N 59°37' E 024°41'6 3.0
2016-Sep-16 07:33N 59°31' E 024°44'38 9.6
2016-Sep-16 03:33N 60°09' E 024°55'1414.4
2016-Sep-16 02:33N 59°56' E 024°44'3517.6
2016-Sep-16 00:33N 59°43' E 023°39'3618.0
2016-Sep-15 22:33N 59°35' E 022°30'1817.6
2016-Sep-15 21:33N 59°31' E 021°56'1616.4
2016-Sep-15 20:33N 59°37' E 021°25'3115.5
2016-Sep-15 18:33N 60°07' E 021°41'6110.1
2016-Sep-15 12:33N 61°07' E 021°28'0 0.0
2016-Sep-15 11:28N 61°07' E 021°28'  
Track history (hours):
 
Tides and Currents Weather Stations Pressure Air Temp Water Temp Dewpoint Dewpoint Depression Visibility Wind Speed Wind Dir Waves Ship Positions

Finlandia

Last reported at 2016-Sep-25 10:06 UTC. Time now 2016-Sep-25 14:06 UTC.
Position N 59°48' E 024°51'.

Length 175 m; draft 7 m.

Type: Passenger vessel. MMSI: 230628000.

Date/timePositionNaut miles runAvg speedWind from/ knotsBaromVisibWave heightAir tempDewpointWater temp
2016-Sep-25 10:06N 59°48' E 024°51'1120.3
2016-Sep-25 09:33N 59°38' E 024°42'9 4.3
2016-Sep-25 07:34N 59°29' E 024°45'13 0.9
2016-Sep-24 16:33N 59°43' E 024°46'16 7.9
2016-Sep-24 14:33N 59°27' E 024°46'12 2.3
2016-Sep-24 09:34N 59°38' E 024°43'16 1.0
2016-Sep-23 17:09N 59°54' E 024°51'1220.7
2016-Sep-23 16:33N 59°42' E 024°41'1615.7
2016-Sep-23 15:33N 59°27' E 024°46'2311.3
2016-Sep-23 13:33N 59°49' E 024°50'12 2.9
2016-Sep-23 09:33N 59°38' E 024°43'14 4.8
2016-Sep-23 06:33N 59°52' E 024°52'18 0.7
2016-Sep-22 04:06N 60°09' E 024°55'0 0.2
2016-Sep-22 03:33N 60°09' E 024°55'28 9.4
2016-Sep-22 00:33N 59°41' E 024°45'8 7.9
2016-Sep-21 23:34N 59°33' E 024°43'7 6.9
2016-Sep-21 22:34N 59°27' E 024°46'4112.9
2016-Sep-21 19:22N 60°08' E 024°54'27 9.7
2016-Sep-21 16:33N 59°41' E 024°41'6 0.8
2016-Sep-21 09:33N 59°36' E 024°42'9 9.1
2016-Sep-21 08:33N 59°27' E 024°46'4214.1
2016-Sep-21 05:34N 60°09' E 024°55'0 0.1
2016-Sep-21 03:33N 60°09' E 024°55'1111.4
2016-Sep-21 02:33N 59°58' E 024°54'4 0.5
2016-Sep-20 17:33N 60°02' E 024°54'3511.7
2016-Sep-20 14:34N 59°27' E 024°46'2322.8
2016-Sep-20 13:33N 59°50' E 024°47'7 2.3
2016-Sep-20 10:34N 59°56' E 024°53'2914.4
2016-Sep-20 08:31N 59°27' E 024°46'4 3.8
2016-Sep-20 07:33N 59°30' E 024°44'1919.3
2016-Sep-20 06:33N 59°50' E 024°47'20 4.9
2016-Sep-20 02:28N 60°09' E 024°55'0 0.0
2016-Sep-19 23:31N 60°09' E 024°55'0 0.0
2016-Sep-19 19:31N 60°09' E 024°55'0 0.0
2016-Sep-19 18:31N 60°09' E 024°55'2914.8
2016-Sep-19 16:33N 59°41' E 024°45'14 6.9
2016-Sep-19 14:33N 59°27' E 024°46'2222.0
2016-Sep-19 13:34N 59°49' E 024°50'2020.4
2016-Sep-19 12:33N 60°09' E 024°55'0 0.2
2016-Sep-19 11:33N 60°09' E 024°55'3316.6
2016-Sep-19 09:33N 59°37' E 024°41'7 3.6
2016-Sep-19 07:34N 59°30' E 024°45'1919.0
2016-Sep-19 06:33N 59°49' E 024°45'21 6.6
2016-Sep-19 03:24N 60°09' E 024°55'0 0.0
2016-Sep-19 02:33N 60°09' E 024°55'0 0.0
2016-Sep-19 00:33N 60°09' E 024°55'0 0.0
2016-Sep-18 19:30N 60°09' E 024°55'4310.8
2016-Sep-18 15:33N 59°27' E 024°46'0 0.3
2016-Sep-18 14:33N 59°27' E 024°46'31 7.7
2016-Sep-18 10:34N 59°57' E 024°54'2120.8
2016-Sep-18 09:33N 59°37' E 024°41'33 4.6
2016-Sep-18 02:31N 60°09' E 024°55'0 0.0
2016-Sep-18 01:31N 60°09' E 024°55'0 0.0
2016-Sep-18 00:31N 60°09' E 024°55'0 0.0
2016-Sep-17 22:31N 60°09' E 024°55'0 0.0
2016-Sep-17 21:31N 60°09' E 024°55'0 0.0
2016-Sep-17 20:31N 60°09' E 024°55'0 0.0
2016-Sep-17 19:13N 60°09' E 024°55'22 3.9
2016-Sep-17 13:34N 59°47' E 024°46'2221.6
2016-Sep-17 12:33N 60°09' E 024°54'13 6.3
2016-Sep-17 10:33N 59°56' E 024°54'2020.1
2016-Sep-17 09:33N 59°37' E 024°41'1010.4
2016-Sep-17 08:33N 59°27' E 024°46'3 3.3
2016-Sep-17 07:34N 59°30' E 024°45'3919.3
2016-Sep-17 05:33N 60°08' E 024°54'1 1.0
2016-Sep-17 04:33N 60°09' E 024°55'0 0.0
2016-Sep-17 00:33N 60°09' E 024°55'9 1.3
2016-Sep-16 17:33N 59°60' E 024°54'3316.7
2016-Sep-16 15:33N 59°27' E 024°46'4214.1
2016-Sep-16 12:34N 60°09' E 024°55'3210.8
2016-Sep-16 09:33N 59°37' E 024°41'6 3.0
2016-Sep-16 07:33N 59°31' E 024°44'38 9.6
2016-Sep-16 03:33N 60°09' E 024°55'1414.4
2016-Sep-16 02:33N 59°56' E 024°44'3517.6
2016-Sep-16 00:33N 59°43' E 023°39'3618.0
2016-Sep-15 22:33N 59°35' E 022°30'1817.6
2016-Sep-15 21:33N 59°31' E 021°56'1616.4
2016-Sep-15 20:33N 59°37' E 021°25'3115.5
2016-Sep-15 18:33N 60°07' E 021°41'6110.1
2016-Sep-15 12:33N 61°07' E 021°28'0 0.0
2016-Sep-15 11:28N 61°07' E 021°28'  

Dump ship's entire track history